createdAt,value
2022-08-19T00:00:12.507Z,97455.78
2022-08-19T00:02:59.751Z,97455.41
2022-08-19T00:05:27.309Z,97460.78
2022-08-19T00:07:54.605Z,97467.38
2022-08-19T00:10:22.361Z,97464.69
2022-08-19T00:12:49.883Z,97474.00
2022-08-19T00:15:21.271Z,97467.41
2022-08-19T00:17:49.854Z,97465.97
2022-08-19T00:20:21.588Z,97465.97
2022-08-19T00:22:49.172Z,97457.31
2022-08-19T00:25:17.795Z,97457.13
2022-08-19T00:27:45.306Z,97446.03
2022-08-19T00:30:13.173Z,97449.13
2022-08-19T00:32:41.184Z,97443.63
2022-08-19T00:35:10.724Z,97431.09
2022-08-19T00:37:39.341Z,97437.44
2022-08-19T00:40:08.808Z,97445.28
2022-08-19T00:42:36.307Z,97439.13
2022-08-19T00:45:11.691Z,97437.28
2022-08-19T00:47:39.780Z,97434.22
2022-08-19T00:50:09.708Z,97429.69
2022-08-19T00:52:46.373Z,97430.16
2022-08-19T00:55:29.842Z,97428.28
2022-08-19T00:58:03.572Z,97425.03
2022-08-19T01:00:33.669Z,97435.47
2022-08-19T01:03:01.212Z,97429.13
2022-08-19T01:05:30.678Z,97420.28
2022-08-19T01:08:01.968Z,97426.25
2022-08-19T01:10:36.634Z,97431.41
2022-08-19T01:13:06.025Z,97424.81
2022-08-19T01:15:42.752Z,97422.16
2022-08-19T01:18:15.395Z,97424.44
2022-08-19T01:20:45.112Z,97417.44
2022-08-19T01:23:14.186Z,97408.81
2022-08-19T01:25:53.567Z,97419.09
2022-08-19T01:28:33.916Z,97419.09
2022-08-19T01:31:01.728Z,97418.06
2022-08-19T01:33:35.714Z,97415.81
2022-08-19T01:36:11.838Z,97418.28
2022-08-19T01:38:44.648Z,97418.28
2022-08-19T01:41:13.553Z,97415.63
2022-08-19T01:44:17.072Z,97419.94
2022-08-19T01:46:29.574Z,97418.13
2022-08-19T01:48:58.008Z,97407.63
2022-08-19T01:51:25.566Z,97408.88
2022-08-19T01:53:53.425Z,97412.16
2022-08-19T01:56:21.666Z,97411.94
2022-08-19T01:58:59.006Z,97399.00
2022-08-19T02:01:26.602Z,97406.81
2022-08-19T02:03:59.717Z,97406.38
2022-08-19T02:06:27.386Z,97401.69
2022-08-19T02:08:57.208Z,97406.00
2022-08-19T02:11:32.484Z,97403.72
2022-08-19T02:14:03.239Z,97408.44
2022-08-19T02:16:31.770Z,97412.53
2022-08-19T02:19:01.647Z,97401.47
2022-08-19T02:21:31.287Z,97399.03
2022-08-19T02:23:58.880Z,97404.16
2022-08-19T02:26:27.754Z,97406.81
2022-08-19T02:28:57.148Z,97403.75
2022-08-19T02:31:28.761Z,97406.00
2022-08-19T02:33:58.304Z,97394.50
2022-08-19T02:36:26.661Z,97398.19
2022-08-19T02:38:55.651Z,97392.06
2022-08-19T02:41:29.197Z,97396.16
2022-08-19T02:44:26.655Z,97396.56
2022-08-19T02:46:51.853Z,97396.34
2022-08-19T02:49:20.904Z,97400.25
2022-08-19T02:51:48.798Z,97396.38
2022-08-19T02:54:16.665Z,97388.16
2022-08-19T02:56:46.901Z,97383.88
2022-08-19T02:59:14.391Z,97378.75
2022-08-19T03:01:43.344Z,97384.69
2022-08-19T03:04:14.989Z,97390.22
2022-08-19T03:06:47.520Z,97394.13
2022-08-19T03:09:15.973Z,97394.53
2022-08-19T03:11:43.528Z,97392.88
2022-08-19T03:14:12.090Z,97394.94
2022-08-19T03:16:50.182Z,97398.84
2022-08-19T03:19:22.298Z,97385.91
2022-08-19T03:21:51.354Z,97398.03
2022-08-19T03:24:20.307Z,97392.88
2022-08-19T03:26:52.472Z,97387.97
2022-08-19T03:29:31.124Z,97388.78
2022-08-19T03:32:06.073Z,97387.75
2022-08-19T03:34:37.652Z,97394.53
2022-08-19T03:37:15.328Z,97398.63
2022-08-19T03:39:43.440Z,97403.56
2022-08-19T03:42:32.082Z,97408.25
2022-08-19T03:44:59.952Z,97404.38
2022-08-19T03:47:27.219Z,97401.94
2022-08-19T03:49:54.603Z,97407.66
2022-08-19T03:52:22.091Z,97415.03
2022-08-19T03:54:49.349Z,97406.44
2022-08-19T03:57:16.619Z,97412.97
2022-08-19T03:59:44.668Z,97413.38
2022-08-19T04:02:14.367Z,97426.09
2022-08-19T04:04:44.606Z,97425.91
2022-08-19T04:07:17.181Z,97434.75
2022-08-19T04:09:44.609Z,97437.59
2022-08-19T04:12:11.907Z,97432.06
2022-08-19T04:14:40.512Z,97436.78
2022-08-19T04:17:07.886Z,97432.06
2022-08-19T04:19:37.054Z,97433.31
2022-08-19T04:22:05.773Z,97444.59
2022-08-19T04:24:36.783Z,97450.53
2022-08-19T04:27:06.523Z,97451.56
2022-08-19T04:29:34.600Z,97452.78
2022-08-19T04:32:08.805Z,97449.28
2022-08-19T04:35:02.072Z,97463.63
2022-08-19T04:37:27.493Z,97474.88
2022-08-19T04:40:19.677Z,97468.28
2022-08-19T04:42:47.036Z,97467.47
2022-08-19T04:45:16.010Z,97475.09
2022-08-19T04:47:47.757Z,97476.31
2022-08-19T04:50:27.489Z,97479.53
2022-08-19T04:52:56.621Z,97471.09
2022-08-19T04:55:26.803Z,97469.88
2022-08-19T04:57:55.776Z,97473.16
2022-08-19T05:00:23.731Z,97469.81
2022-08-19T05:02:51.062Z,97461.00
2022-08-19T05:05:19.225Z,97458.66
2022-08-19T05:07:46.719Z,97447.97
2022-08-19T05:10:14.299Z,97457.84
2022-08-19T05:12:41.776Z,97460.28
2022-08-19T05:15:09.807Z,97472.13
2022-08-19T05:17:38.920Z,97470.84
2022-08-19T05:20:27.568Z,97466.91
2022-08-19T05:22:55.122Z,97470.81
2022-08-19T05:25:26.365Z,97463.38
2022-08-19T05:27:53.608Z,97467.69
2022-08-19T05:30:33.570Z,97471.78
2022-08-19T05:33:10.763Z,97481.22
2022-08-19T05:35:40.438Z,97481.44
2022-08-19T05:38:09.377Z,97488.06
2022-08-19T05:40:38.979Z,97482.81
2022-08-19T05:43:09.146Z,97483.41
2022-08-19T05:45:43.062Z,97489.78
2022-08-19T05:48:15.267Z,97491.41
2022-08-19T05:50:43.571Z,97486.66
2022-08-19T05:53:11.081Z,97470.56
2022-08-19T05:55:39.714Z,97479.81
2022-08-19T05:58:08.705Z,97483.03
2022-08-19T06:00:38.416Z,97488.44
2022-08-19T06:03:12.940Z,97489.66
2022-08-19T06:05:46.199Z,97492.81
2022-08-19T06:08:33.981Z,97493.25
2022-08-19T06:11:20.080Z,97490.00
2022-08-19T06:13:52.180Z,97497.28
2022-08-19T06:16:26.932Z,97491.91
2022-08-19T06:18:55.702Z,97499.69
2022-08-19T06:21:28.328Z,97501.31
2022-08-19T06:23:58.229Z,97497.09
2022-08-19T06:26:26.100Z,97499.84
2022-08-19T06:28:53.861Z,97495.28
2022-08-19T06:31:26.703Z,97500.19
2022-08-19T06:33:54.238Z,97510.72
2022-08-19T06:36:32.594Z,97517.72
2022-08-19T06:39:00.470Z,97515.63
2022-08-19T06:41:29.437Z,97517.75
2022-08-19T06:43:57.740Z,97513.66
2022-08-19T06:46:25.420Z,97522.66
2022-08-19T06:48:54.465Z,97528.03
2022-08-19T06:51:25.026Z,97531.22
2022-08-19T06:53:56.020Z,97544.38
2022-08-19T06:56:36.258Z,97542.97
2022-08-19T06:59:11.553Z,97543.25
2022-08-19T07:02:03.444Z,97545.06
2022-08-19T07:04:35.476Z,97546.41
2022-08-19T07:07:21.415Z,97550.75
2022-08-19T07:09:58.475Z,97552.44
2022-08-19T07:12:38.055Z,97566.09
2022-08-19T07:15:07.418Z,97566.19
2022-08-19T07:17:39.157Z,97569.94
2022-08-19T07:20:09.626Z,97580.22
2022-08-19T07:22:40.352Z,97581.13
2022-08-19T07:25:10.202Z,97584.09
2022-08-19T07:27:39.516Z,97580.47
2022-08-19T07:30:14.486Z,97589.22
2022-08-19T07:32:43.486Z,97589.94
2022-08-19T07:35:11.532Z,97593.72
2022-08-19T07:37:40.270Z,97598.25
2022-08-19T07:40:08.937Z,97596.81
2022-08-19T07:42:36.670Z,97603.16
2022-08-19T07:45:06.710Z,97599.34
2022-08-19T07:47:50.160Z,97602.63
2022-08-19T07:50:21.319Z,97602.03
2022-08-19T07:52:51.019Z,97597.97
2022-08-19T07:55:41.967Z,97603.41
2022-08-19T07:58:14.562Z,97607.13
2022-08-19T08:00:44.117Z,97599.91
2022-08-19T08:03:13.113Z,97610.69
2022-08-19T08:05:59.058Z,97609.47
2022-08-19T08:08:48.184Z,97613.19
2022-08-19T08:11:21.236Z,97615.31
2022-08-19T08:14:00.760Z,97607.91
2022-08-19T08:16:39.648Z,97607.84
2022-08-19T08:19:20.639Z,97611.88
2022-08-19T08:21:57.283Z,97603.72
2022-08-19T08:24:29.025Z,97607.63
2022-08-19T08:27:02.313Z,97614.81
2022-08-19T08:29:34.984Z,97605.59
2022-08-19T08:32:03.756Z,97599.09
2022-08-19T08:34:42.100Z,97594.03
2022-08-19T08:37:09.450Z,97591.22
2022-08-19T08:39:36.727Z,97601.38
2022-08-19T08:42:27.207Z,97599.00
2022-08-19T08:45:04.608Z,97602.53
2022-08-19T08:47:41.978Z,97595.66
2022-08-19T08:50:15.899Z,97603.03
2022-08-19T08:52:49.716Z,97589.50
2022-08-19T08:55:36.881Z,97589.47
2022-08-19T08:58:16.968Z,97582.38
2022-08-19T09:00:49.005Z,97580.63
2022-08-19T09:03:31.705Z,97578.72
2022-08-19T09:06:28.580Z,97580.75
2022-08-19T09:09:11.798Z,97579.72
2022-08-19T09:12:19.637Z,97580.75
2022-08-19T09:15:03.004Z,97590.00
2022-08-19T09:20:11.049Z,97585.09
2022-08-19T09:22:41.528Z,97588.72
2022-08-19T09:25:12.581Z,97588.13
2022-08-19T09:27:43.644Z,97592.94
2022-08-19T09:30:23.301Z,97596.22
2022-08-19T09:32:53.781Z,97602.59
2022-08-19T09:35:25.007Z,97602.38
2022-08-19T09:37:57.358Z,97601.59
2022-08-19T09:40:37.708Z,97598.53
2022-08-19T09:43:09.874Z,97599.31
2022-08-19T09:45:37.737Z,97601.81
2022-08-19T09:48:05.954Z,97595.25
2022-08-19T09:50:36.085Z,97595.72
2022-08-19T09:53:03.894Z,97597.72
2022-08-19T09:55:34.134Z,97605.31
2022-08-19T09:58:02.950Z,97614.38
2022-08-19T10:00:32.445Z,97615.34
2022-08-19T10:03:00.338Z,97621.28
2022-08-19T10:05:48.725Z,97609.16
2022-08-19T10:08:30.465Z,97608.75
2022-08-19T10:10:59.151Z,97607.50
2022-08-19T10:13:30.817Z,97606.81
2022-08-19T10:16:07.625Z,97615.22
2022-08-19T10:18:36.971Z,97633.34
2022-08-19T10:21:22.155Z,97639.00
2022-08-19T10:23:58.496Z,97639.59
2022-08-19T10:26:42.659Z,97649.44
2022-08-19T10:29:11.051Z,97647.09
2022-08-19T10:32:02.423Z,97635.25
2022-08-19T10:34:28.558Z,97635.09
2022-08-19T10:37:01.241Z,97631.44
2022-08-19T10:39:43.143Z,97634.28
2022-08-19T10:42:13.015Z,97630.72
2022-08-19T10:44:41.378Z,97619.94
2022-08-19T10:47:17.885Z,97618.94
2022-08-19T10:50:15.422Z,97616.16
2022-08-19T10:52:50.855Z,97596.06
2022-08-19T10:55:44.086Z,97595.53
2022-08-19T10:58:18.780Z,97587.16
2022-08-19T11:00:59.710Z,97583.31
2022-08-19T11:03:30.500Z,97539.88
2022-08-19T11:06:07.216Z,97531.28
2022-08-19T11:08:36.038Z,97528.75
2022-08-19T11:11:04.666Z,97535.09
2022-08-19T11:13:38.327Z,97541.63
2022-08-19T11:16:16.421Z,97538.69
2022-08-19T11:18:50.151Z,97538.00
2022-08-19T11:21:28.937Z,97530.59
2022-08-19T11:24:00.485Z,97527.66
2022-08-19T11:26:31.575Z,97530.13
2022-08-19T11:29:00.831Z,97523.47
2022-08-19T11:31:32.459Z,97526.34
2022-08-19T11:34:04.245Z,97535.13
2022-08-19T11:36:33.653Z,97530.19
2022-08-19T11:39:03.635Z,97521.66
2022-08-19T11:41:30.887Z,97520.91
2022-08-19T11:43:58.289Z,97532.28
2022-08-19T11:46:30.544Z,97516.81
2022-08-19T11:49:01.684Z,97524.53
2022-08-19T11:51:30.932Z,97528.25
2022-08-19T11:54:00.806Z,97527.44
2022-08-19T11:56:29.089Z,97518.44
2022-08-19T11:59:00.169Z,97519.59
2022-08-19T12:01:28.187Z,97517.94
2022-08-19T12:03:57.727Z,97515.41
2022-08-19T12:06:31.341Z,97517.38
2022-08-19T12:09:02.684Z,97515.41
2022-08-19T12:11:31.260Z,97506.88
2022-08-19T12:14:02.290Z,97519.47
2022-08-19T12:16:32.939Z,97514.41
2022-08-19T12:19:05.026Z,97506.94
2022-08-19T12:21:36.581Z,97504.72
2022-08-19T12:24:07.022Z,97503.91
2022-08-19T12:26:35.899Z,97502.81
2022-08-19T12:29:23.648Z,97491.50
2022-08-19T12:31:52.029Z,97503.84
2022-08-19T12:34:21.076Z,97494.63
2022-08-19T12:36:50.494Z,97483.69
2022-08-19T12:39:18.410Z,97489.22
2022-08-19T12:41:53.989Z,97481.19
2022-08-19T12:44:29.165Z,97484.00
2022-08-19T12:46:58.643Z,97482.56
2022-08-19T12:49:52.588Z,97469.69
2022-08-19T12:52:17.055Z,97470.31
2022-08-19T12:54:54.099Z,97467.84
2022-08-19T12:57:31.513Z,97480.28
2022-08-19T13:00:15.023Z,97465.94
2022-08-19T13:02:50.771Z,97469.72
2022-08-19T13:05:23.667Z,97464.25
2022-08-19T13:07:56.990Z,97466.06
2022-08-19T13:10:29.088Z,97467.69
2022-08-19T13:13:00.608Z,97476.31
2022-08-19T13:15:29.531Z,97461.66
2022-08-19T13:17:57.377Z,97475.72
2022-08-19T13:20:26.859Z,97468.31
2022-08-19T13:22:56.454Z,97472.63
2022-08-19T13:25:24.413Z,97467.81
2022-08-19T13:27:52.234Z,97471.66
2022-08-19T13:30:40.440Z,97475.28
2022-08-19T13:33:12.071Z,97470.72
2022-08-19T13:35:44.181Z,97460.53
2022-08-19T13:38:12.959Z,97466.00
2022-08-19T13:40:42.227Z,97471.34
2022-08-19T13:43:17.782Z,97462.00
2022-08-19T13:45:57.066Z,97459.91
2022-08-19T13:48:27.829Z,97456.38
2022-08-19T13:50:56.259Z,97457.28
2022-08-19T13:53:24.616Z,97453.63
2022-08-19T13:55:52.234Z,97443.47
2022-08-19T13:58:19.851Z,97446.44
2022-08-19T14:00:48.599Z,97447.94
2022-08-19T14:03:16.078Z,97438.03
2022-08-19T14:05:43.565Z,97443.34
2022-08-19T14:08:10.862Z,97439.19
2022-08-19T14:10:38.383Z,97444.31
2022-08-19T14:13:06.398Z,97449.66
2022-08-19T14:15:33.841Z,97444.16
2022-08-19T14:18:01.365Z,97442.63
2022-08-19T14:20:29.119Z,97438.38
2022-08-19T14:22:56.894Z,97433.59
2022-08-19T14:25:28.763Z,97430.94
2022-08-19T14:27:58.023Z,97434.25
2022-08-19T14:30:35.559Z,97426.78
2022-08-19T14:33:04.546Z,97428.84
2022-08-19T14:35:35.714Z,97422.44
2022-08-19T14:38:07.099Z,97435.72
2022-08-19T14:40:35.804Z,97432.38
2022-08-19T14:43:05.598Z,97421.75
2022-08-19T14:45:39.361Z,97415.00
2022-08-19T14:48:12.408Z,97407.78
2022-08-19T14:50:46.807Z,97416.94
2022-08-19T14:53:14.241Z,97406.88
2022-08-19T14:55:47.703Z,97401.00
2022-08-19T14:58:16.654Z,97399.88
2022-08-19T15:01:00.354Z,97394.72
2022-08-19T15:03:29.483Z,97390.91
2022-08-19T15:05:58.743Z,97386.03
2022-08-19T15:08:29.265Z,97386.53
2022-08-19T15:10:58.889Z,97385.28
2022-08-19T15:13:28.919Z,97381.72
2022-08-19T15:15:58.220Z,97386.78
2022-08-19T15:18:25.961Z,97390.72
2022-08-19T15:20:53.483Z,97390.53
2022-08-19T15:23:22.262Z,97377.53
2022-08-19T15:25:54.537Z,97383.75
2022-08-19T15:28:45.006Z,97375.66
2022-08-19T15:31:25.089Z,97362.13
2022-08-19T15:33:58.862Z,97363.69
2022-08-19T15:36:27.899Z,97359.84
2022-08-19T15:38:57.110Z,97359.47
2022-08-19T15:41:30.630Z,97349.25
2022-08-19T15:44:09.675Z,97346.84
2022-08-19T15:46:40.716Z,97347.50
2022-08-19T15:49:09.113Z,97352.19
2022-08-19T15:51:39.344Z,97349.03
2022-08-19T15:54:10.949Z,97356.66
2022-08-19T15:57:12.529Z,97360.19
2022-08-19T16:00:00.128Z,97378.69
2022-08-19T16:02:53.504Z,97390.41
2022-08-19T16:05:44.400Z,97391.22
2022-08-19T16:08:12.254Z,97399.91
2022-08-19T16:10:40.548Z,97403.72
2022-08-19T16:13:08.011Z,97403.47
2022-08-19T16:15:35.491Z,97406.44
2022-08-19T16:18:04.482Z,97392.59
2022-08-19T16:20:33.181Z,97394.50
2022-08-19T16:23:05.070Z,97398.84
2022-08-19T16:25:33.029Z,97397.47
2022-08-19T16:28:07.404Z,97404.72
2022-08-19T16:30:40.178Z,97404.69
2022-08-19T16:33:09.468Z,97398.16
2022-08-19T16:35:37.855Z,97401.94
2022-08-19T16:38:06.027Z,97394.59
2022-08-19T16:40:35.499Z,97394.31
2022-08-19T16:43:04.001Z,97390.50
2022-08-19T16:45:31.729Z,97392.88
2022-08-19T16:47:59.337Z,97382.28
2022-08-19T16:50:46.248Z,97386.34
2022-08-19T16:53:20.639Z,97375.75
2022-08-19T16:55:57.468Z,97359.50
2022-08-19T16:58:29.294Z,97364.88
2022-08-19T17:01:03.772Z,97369.13
2022-08-19T17:03:36.439Z,97376.69
2022-08-19T17:06:15.793Z,97383.13
2022-08-19T17:08:46.873Z,97379.28
2022-08-19T17:11:19.117Z,97390.66
2022-08-19T17:13:48.494Z,97409.84
2022-08-19T17:16:28.052Z,97434.66
2022-08-19T17:18:59.125Z,97455.72
2022-08-19T17:21:32.547Z,97467.28
2022-08-19T17:24:04.084Z,97491.31
2022-08-19T17:26:32.047Z,97530.91
2022-08-19T17:29:00.311Z,97606.97
2022-08-19T17:31:31.334Z,97535.63
2022-08-19T17:33:59.752Z,97528.78
2022-08-19T17:36:30.772Z,97516.09
2022-08-19T17:39:01.517Z,97519.00
2022-08-19T17:41:30.496Z,97568.41
2022-08-19T17:43:58.239Z,97607.38
2022-08-19T17:46:26.077Z,97631.34
2022-08-19T17:48:55.221Z,97655.00
2022-08-19T17:51:34.213Z,97677.03
2022-08-19T17:54:04.475Z,97664.56
2022-08-19T17:56:31.673Z,97635.00
2022-08-19T17:59:00.625Z,97615.56
2022-08-19T18:01:43.953Z,97623.22
2022-08-19T18:04:19.902Z,97636.53
2022-08-19T18:06:53.711Z,97635.47
2022-08-19T18:09:38.571Z,97632.03
2022-08-19T18:12:13.372Z,97637.69
2022-08-19T18:14:41.735Z,97647.63
2022-08-19T18:17:13.796Z,97657.34
2022-08-19T18:19:44.090Z,97662.88
2022-08-19T18:22:26.789Z,97657.19
2022-08-19T18:24:57.164Z,97694.94
2022-08-19T18:27:27.180Z,97759.81
2022-08-19T18:29:59.557Z,97775.22
2022-08-19T18:32:34.149Z,97802.63
2022-08-19T18:35:10.037Z,97800.78
2022-08-19T18:37:43.623Z,97773.00
2022-08-19T18:40:35.244Z,97771.09
2022-08-19T18:43:11.744Z,97731.63
2022-08-19T18:46:01.962Z,97713.16
2022-08-19T18:48:48.205Z,97695.72
2022-08-19T18:51:17.446Z,97662.22
2022-08-19T18:53:48.677Z,97655.25
2022-08-19T18:56:19.895Z,97663.03
2022-08-19T18:58:47.511Z,97681.09
2022-08-19T19:01:21.573Z,97704.72
2022-08-19T19:03:54.015Z,97726.34
2022-08-19T19:06:29.862Z,97724.28
2022-08-19T19:08:58.150Z,97718.13
2022-08-19T19:11:37.643Z,97720.41
2022-08-19T19:14:23.313Z,97699.84
2022-08-19T19:17:02.522Z,97683.19
2022-08-19T19:19:31.860Z,97681.31
2022-08-19T19:22:01.146Z,97702.09
2022-08-19T19:24:33.082Z,97700.25
2022-08-19T19:27:08.487Z,97709.09
2022-08-19T19:29:37.615Z,97708.25
2022-08-19T19:32:16.689Z,97706.63
2022-08-19T19:34:45.577Z,97704.97
2022-08-19T19:37:13.269Z,97718.56
2022-08-19T19:39:45.284Z,97711.13
2022-08-19T19:42:21.607Z,97702.50
2022-08-19T19:44:52.727Z,97701.28
2022-08-19T19:47:24.431Z,97710.28
2022-08-19T19:50:13.395Z,97714.81
2022-08-19T19:52:41.600Z,97708.22
2022-08-19T19:55:15.782Z,97704.13
2022-08-19T19:57:54.031Z,97698.78
2022-08-19T20:00:22.161Z,97699.16
2022-08-19T20:02:51.433Z,97696.09
2022-08-19T20:05:21.534Z,97693.44
2022-08-19T20:08:10.459Z,97698.13
2022-08-19T20:10:40.250Z,97683.13
2022-08-19T20:13:09.241Z,97682.31
2022-08-19T20:15:42.178Z,97670.81
2022-08-19T20:18:14.537Z,97670.19
2022-08-19T20:20:43.665Z,97666.25
2022-08-19T20:23:11.361Z,97668.50
2022-08-19T20:25:39.903Z,97666.47
2022-08-19T20:28:08.801Z,97662.53
2022-08-19T20:30:36.557Z,97644.00
2022-08-19T20:33:07.835Z,97633.94
2022-08-19T20:35:37.463Z,97629.00
2022-08-19T20:38:06.640Z,97644.22
2022-08-19T20:40:35.412Z,97644.44
2022-08-19T20:43:07.813Z,97647.31
2022-08-19T20:45:36.824Z,97652.69
2022-08-19T20:48:07.464Z,97647.56
2022-08-19T20:50:36.563Z,97643.25
2022-08-19T20:53:17.572Z,97637.06
2022-08-19T20:55:49.327Z,97627.19
2022-08-19T20:58:21.473Z,97627.81
2022-08-19T21:00:50.805Z,97625.94
2022-08-19T21:03:25.003Z,97626.81
2022-08-19T21:05:54.392Z,97651.47
2022-08-19T21:08:24.368Z,97663.47
2022-08-19T21:10:54.478Z,97653.00
2022-08-19T21:13:23.581Z,97653.56
2022-08-19T21:15:51.543Z,97673.72
2022-08-19T21:18:22.022Z,97675.34
2022-08-19T21:20:50.668Z,97683.56
2022-08-19T21:23:25.672Z,97690.97
2022-08-19T21:25:55.526Z,97698.56
2022-08-19T21:28:29.918Z,97696.72
2022-08-19T21:31:06.982Z,97707.59
2022-08-19T21:33:34.895Z,97716.78
2022-08-19T21:36:03.239Z,97728.28
2022-08-19T21:38:31.251Z,97726.66
2022-08-19T21:40:59.075Z,97726.16
2022-08-19T21:43:26.512Z,97720.16
2022-08-19T21:45:53.905Z,97721.94
2022-08-19T21:48:21.402Z,97709.63
2022-08-19T21:50:49.756Z,97717.41
2022-08-19T21:53:18.773Z,97723.16
2022-08-19T21:55:52.774Z,97703.28
2022-08-19T21:58:29.213Z,97697.31
2022-08-19T22:01:06.175Z,97694.44
2022-08-19T22:03:35.947Z,97684.44
2022-08-19T22:06:03.803Z,97678.47
2022-08-19T22:08:31.643Z,97671.09
2022-08-19T22:11:01.778Z,97671.69
2022-08-19T22:13:36.889Z,97671.94
2022-08-19T22:16:07.447Z,97664.78
2022-08-19T22:18:35.502Z,97650.81
2022-08-19T22:21:06.393Z,97662.59
2022-08-19T22:23:37.191Z,97666.09
2022-08-19T22:26:04.507Z,97659.72
2022-08-19T22:28:31.733Z,97651.09
2022-08-19T22:30:59.237Z,97644.53
2022-08-19T22:33:27.824Z,97636.13
2022-08-19T22:35:55.592Z,97633.84
2022-08-19T22:38:24.141Z,97626.06
2022-08-19T22:40:53.920Z,97634.28
2022-08-19T22:43:26.327Z,97639.00
2022-08-19T22:45:55.827Z,97651.13
2022-08-19T22:48:28.212Z,97628.13
2022-08-19T22:51:15.679Z,97620.50
2022-08-19T22:53:46.841Z,97617.63
2022-08-19T22:56:21.175Z,97612.09
2022-08-19T22:58:50.872Z,97612.28
2022-08-19T23:01:29.617Z,97614.56
2022-08-19T23:03:59.257Z,97602.63
2022-08-19T23:06:33.180Z,97609.84
2022-08-19T23:09:05.042Z,97629.34
2022-08-19T23:11:39.862Z,97641.41
2022-08-19T23:14:11.363Z,97637.94
2022-08-19T23:16:41.525Z,97645.31
2022-08-19T23:19:10.493Z,97650.66
2022-08-19T23:21:41.467Z,97637.13
2022-08-19T23:24:09.818Z,97649.03
2022-08-19T23:26:37.428Z,97666.69
2022-08-19T23:29:24.352Z,97683.88
2022-08-19T23:31:52.082Z,97682.22
2022-08-19T23:34:20.419Z,97680.59
2022-08-19T23:36:48.455Z,97649.81
2022-08-19T23:39:15.956Z,97657.81
2022-08-19T23:41:43.272Z,97651.03
2022-08-19T23:44:14.694Z,97645.69
2022-08-19T23:46:51.899Z,97632.16
2022-08-19T23:49:24.403Z,97625.16
2022-08-19T23:51:52.968Z,97621.47
2022-08-19T23:54:20.452Z,97623.94
2022-08-19T23:56:47.834Z,97633.38
2022-08-19T23:59:15.284Z,97636.47
